Time;durP1;ratioP1;P1;durP2;ratioP2;P2;SDS_P1;SDS_P2;PMS_P1;PMS_P2;Temp;Humidity;BMP_temperature;BMP_pressure;BME280_temperature;BME280_humidity;BME280_pressure;Samples;Min_cycle;Max_cycle;Signal;HPM_P1;HPM_P2
2021/09/23 00:00:21;;;;;;;6.87;5.67;;;;;;;10.07;82.73;100684.08;1725727;83;21751;-60
2021/09/23 00:05:33;;;;;;;8.10;6.50;;;;;;;10.01;82.98;100679.31;1727054;83;21276;-61
2021/09/23 00:08:12;;;;;;;9.48;6.53;;;;;;;9.99;83.06;100673.38;1725492;83;21168;-61
2021/09/23 00:10:45;;;;;;;7.72;6.22;;;;;;;9.93;83.18;100676.97;1727133;83;21273;-60
2021/09/23 00:13:19;;;;;;;13.78;6.35;;;;;;;9.87;83.32;100680.89;1726559;83;21304;-61
2021/09/23 00:15:58;;;;;;;7.70;5.35;;;;;;;9.80;83.47;100677.09;1727352;83;21138;-61
2021/09/23 00:18:31;;;;;;;10.18;5.37;;;;;;;9.74;83.73;100678.91;1727156;83;21291;-60
2021/09/23 00:21:06;;;;;;;8.50;5.37;;;;;;;9.74;83.91;100684.13;1725596;83;21209;-61
2021/09/23 00:23:40;;;;;;;8.48;5.55;;;;;;;9.74;84.02;100688.52;1706461;83;21300;-60
2021/09/23 00:26:17;;;;;;;7.30;5.53;;;;;;;9.77;84.07;100682.56;1725627;83;21176;-61
2021/09/23 00:28:52;;;;;;;9.05;5.45;;;;;;;9.82;84.07;100685.65;1726905;83;21296;-61
2021/09/23 00:31:28;;;;;;;6.75;6.03;;;;;;;9.87;83.91;100691.35;1727167;83;21308;-60
2021/09/23 00:34:02;;;;;;;6.70;5.53;;;;;;;9.88;83.72;100694.34;1725532;83;21181;-60
2021/09/23 00:36:42;;;;;;;7.05;5.65;;;;;;;9.90;83.84;100683.74;1725301;83;21161;-61
2021/09/23 00:39:23;;;;;;;23.50;10.43;;;;;;;9.93;84.00;100673.05;1725624;83;21189;-60
2021/09/23 00:42:03;;;;;;;90.03;26.62;;;;;;;9.99;84.14;100672.55;1727343;83;21262;-60
2021/09/23 00:44:38;;;;;;;80.03;26.27;;;;;;;10.04;84.25;100666.00;1725764;83;21169;-60
2021/09/23 00:47:12;;;;;;;30.40;11.88;;;;;;;10.07;84.28;100669.69;1726032;83;21217;-61
2021/09/23 00:49:49;;;;;;;24.02;11.00;;;;;;;10.11;84.22;100672.88;1737619;81;21147;-60
2021/09/23 00:52:28;;;;;;;20.45;9.50;;;;;;;10.12;84.11;100681.13;1762326;81;21842;-61
2021/09/23 00:55:03;;;;;;;33.15;13.05;;;;;;;10.17;84.24;100680.75;1746736;81;21286;-61
2021/09/23 00:57:36;;;;;;;37.03;15.93;;;;;;;10.21;84.34;100679.54;1731520;83;21203;-61
2021/09/23 01:00:17;;;;;;;28.17;13.03;;;;;;;10.25;84.37;100686.18;1723152;83;21281;-61
2021/09/23 01:02:59;;;;;;;20.15;9.95;;;;;;;10.27;84.27;100679.88;1676392;85;21160;-61
2021/09/23 01:05:37;;;;;;;15.70;9.93;;;;;;;10.29;84.18;100672.75;1667776;86;21763;-61
2021/09/23 01:08:14;;;;;;;13.72;8.10;;;;;;;10.32;84.18;100675.60;1723245;83;21830;-62
2021/09/23 01:10:51;;;;;;;10.95;7.75;;;;;;;10.35;84.09;100670.09;1694130;84;21765;-60
2021/09/23 01:13:28;;;;;;;8.90;7.08;;;;;;;10.37;84.10;100666.88;1693271;85;21180;-60
2021/09/23 01:16:04;;;;;;;8.18;6.00;;;;;;;10.40;83.97;100670.56;1689575;85;21223;-61
2021/09/23 01:18:48;;;;;;;7.58;6.00;;;;;;;10.40;83.67;100662.70;1650615;85;21180;-60
2021/09/23 01:21:26;;;;;;;10.78;7.22;;;;;;;10.41;83.48;100659.95;1692642;85;21248;-60
2021/09/23 01:24:03;;;;;;;11.50;7.55;;;;;;;10.41;83.38;100661.26;1693441;85;21315;-61
2021/09/23 01:26:43;;;;;;;10.53;7.10;;;;;;;10.40;83.43;100656.16;1674213;85;21160;-60
2021/09/23 01:29:22;;;;;;;7.97;6.53;;;;;;;10.38;83.39;100661.53;1674161;85;21204;-60
2021/09/23 01:32:01;;;;;;;10.15;7.03;;;;;;;10.37;83.45;100670.33;1694764;85;21153;-60
2021/09/23 01:34:39;;;;;;;19.40;8.83;;;;;;;10.40;83.50;100661.39;1694060;85;21318;-60
2021/09/23 01:37:18;;;;;;;14.00;8.58;;;;;;;10.42;83.62;100663.41;1694806;85;21164;-60
2021/09/23 01:39:56;;;;;;;15.53;8.35;;;;;;;10.44;83.68;100658.88;1694376;85;21172;-60
2021/09/23 01:42:33;;;;;;;17.17;9.13;;;;;;;10.45;83.65;100650.91;1693154;85;21179;-60
2021/09/23 01:45:08;;;;;;;16.97;9.23;;;;;;;10.46;83.58;100659.10;1694289;85;21307;-61
2021/09/23 01:47:48;;;;;;;19.40;9.43;;;;;;;10.45;83.65;100660.08;1694121;85;21280;-60
2021/09/23 01:50:24;;;;;;;10.78;7.90;;;;;;;10.45;83.71;100659.23;1694459;85;21306;-60
2021/09/23 01:53:00;;;;;;;9.50;7.60;;;;;;;10.41;83.57;100646.06;1693365;85;21687;-60
2021/09/23 01:55:39;;;;;;;11.50;7.78;;;;;;;10.35;83.54;100652.61;1670949;85;21187;-62
2021/09/23 01:58:18;;;;;;;11.53;8.48;;;;;;;10.31;83.63;100647.75;1694622;85;21165;-60
2021/09/23 02:00:54;;;;;;;11.50;7.67;;;;;;;10.26;83.61;100649.44;1694204;85;21310;-60
2021/09/23 02:03:29;;;;;;;10.93;8.50;;;;;;;10.23;83.61;100656.69;1693237;85;21215;-60
2021/09/23 02:06:13;;;;;;;11.48;8.45;;;;;;;10.19;83.67;100656.59;1692639;85;21291;-60
2021/09/23 02:08:48;;;;;;;11.25;8.15;;;;;;;10.16;83.71;100657.67;1670509;85;21172;-60
2021/09/23 02:11:25;;;;;;;11.45;7.90;;;;;;;10.15;83.79;100658.62;1694023;85;21251;-60
2021/09/23 02:14:04;;;;;;;8.33;7.40;;;;;;;10.13;83.82;100651.38;1694988;85;21283;-60
2021/09/23 02:16:42;;;;;;;10.00;7.40;;;;;;;10.11;83.83;100650.64;1694101;85;21169;-60
2021/09/23 02:19:37;;;;;;;8.55;6.15;;;;;;;10.09;83.82;100647.32;1693307;85;21187;-61
2021/09/23 02:22:12;;;;;;;8.28;6.17;;;;;;;10.03;83.77;100642.59;1693400;85;21171;-60
2021/09/23 02:24:51;;;;;;;12.25;6.55;;;;;;;9.99;83.83;100651.15;1693348;85;21228;-60
2021/09/23 02:27:28;;;;;;;9.48;6.55;;;;;;;9.99;83.89;100656.85;1693363;85;21183;-60
2021/09/23 02:30:03;;;;;;;8.78;6.37;;;;;;;9.99;84.01;100659.00;1693503;85;21180;-61
2021/09/23 02:32:38;;;;;;;11.15;7.15;;;;;;;10.02;83.82;100658.76;1693415;85;21204;-60
2021/09/23 02:35:13;;;;;;;9.93;6.83;;;;;;;10.06;83.78;100664.56;1693413;83;21237;-61
2021/09/23 02:37:52;;;;;;;8.30;6.95;;;;;;;10.08;83.77;100666.10;1694310;85;21152;-60
2021/09/23 02:40:25;;;;;;;8.65;6.70;;;;;;;10.09;83.65;100662.55;1693889;85;21298;-60
2021/09/23 02:43:03;;;;;;;8.93;6.95;;;;;;;10.09;83.57;100654.70;1693752;85;21240;-60
2021/09/23 02:45:36;;;;;;;11.97;6.92;;;;;;;10.09;83.56;100660.40;1694333;85;21224;-60
2021/09/23 02:48:10;;;;;;;9.03;6.30;;;;;;;10.10;83.56;100664.19;1694812;85;21360;-60
2021/09/23 02:50:48;;;;;;;7.97;6.30;;;;;;;10.10;83.64;100656.84;1694582;85;21157;-62
2021/09/23 02:53:25;;;;;;;11.10;7.45;;;;;;;10.13;83.71;100650.06;1695028;85;21220;-60
2021/09/23 02:55:59;;;;;;;10.88;7.08;;;;;;;10.15;83.63;100649.45;1694034;85;21184;-60
2021/09/23 02:58:36;;;;;;;11.45;6.78;;;;;;;10.16;83.64;100652.44;1694609;85;21333;-60
2021/09/23 03:01:17;;;;;;;9.35;6.90;;;;;;;10.18;83.58;100655.77;1693512;85;21172;-60
2021/09/23 03:03:58;;;;;;;13.85;7.55;;;;;;;10.19;83.44;100650.06;1693271;84;21172;-60
2021/09/23 03:06:35;;;;;;;9.03;6.92;;;;;;;10.17;83.18;100655.89;1693737;85;21351;-60
2021/09/23 03:09:09;;;;;;;13.03;7.53;;;;;;;10.16;83.25;100661.59;1693233;84;21176;-61
2021/09/23 03:11:45;;;;;;;8.85;6.92;;;;;;;10.18;83.38;100662.30;1693261;84;21160;-60
2021/09/23 03:14:20;;;;;;;10.80;7.15;;;;;;;10.21;83.55;100659.92;1694614;85;21338;-61
2021/09/23 03:16:57;;;;;;;7.80;5.42;;;;;;;10.24;83.67;100659.67;1693166;85;21160;-60
2021/09/23 03:19:35;;;;;;;7.75;5.95;;;;;;;10.24;83.75;100659.20;1694628;85;21283;-60
2021/09/23 03:22:10;;;;;;;6.65;5.80;;;;;;;10.28;83.70;100655.38;1693167;84;21796;-61
2021/09/23 03:24:47;;;;;;;7.58;6.25;;;;;;;10.30;83.63;100656.55;1693522;85;21287;-60
2021/09/23 03:27:26;;;;;;;9.00;6.80;;;;;;;10.32;83.63;100658.09;1693062;85;21184;-60
2021/09/23 03:30:09;;;;;;;11.22;7.47;;;;;;;10.35;83.50;100660.94;1694590;85;21266;-60
2021/09/23 03:32:43;;;;;;;9.05;6.42;;;;;;;10.35;83.41;100663.55;1694122;85;21315;-60
2021/09/23 03:35:27;;;;;;;7.92;6.47;;;;;;;10.35;83.20;100660.94;1694606;85;21301;-60
2021/09/23 03:38:01;;;;;;;9.93;6.37;;;;;;;10.36;83.05;100667.84;1676244;85;21193;-60
2021/09/23 03:40:36;;;;;;;6.90;5.85;;;;;;;10.38;83.11;100671.16;1723907;83;21267;-60
2021/09/23 03:43:15;;;;;;;11.20;5.30;;;;;;;10.41;82.99;100670.92;1730575;83;21812;-60
2021/09/23 03:45:50;;;;;;;9.28;6.05;;;;;;;10.42;82.94;100666.02;1729271;83;21216;-60
2021/09/23 03:48:24;;;;;;;10.10;7.45;;;;;;;10.44;82.92;100664.11;1729925;83;21268;-60
2021/09/23 03:51:02;;;;;;;10.20;8.13;;;;;;;10.47;82.88;100666.48;1729367;81;21145;-61
2021/09/23 03:53:38;;;;;;;12.20;8.73;;;;;;;10.47;82.80;100673.02;1708660;83;21298;-60
2021/09/23 03:56:15;;;;;;;11.65;8.50;;;;;;;10.48;82.65;100672.08;1730173;83;21148;-60
2021/09/23 03:58:57;;;;;;;11.83;8.63;;;;;;;10.49;82.54;100675.03;1732996;83;21145;-60
2021/09/23 04:01:34;;;;;;;14.05;9.15;;;;;;;10.51;82.41;100670.03;1723464;83;21281;-60
2021/09/23 04:04:08;;;;;;;13.18;8.30;;;;;;;10.54;82.25;100665.02;1695122;84;21525;-62
2021/09/23 04:06:44;;;;;;;15.65;8.88;;;;;;;10.59;82.34;100672.02;1721851;83;21249;-61
2021/09/23 04:09:22;;;;;;;15.15;7.83;;;;;;;10.63;82.25;100672.95;1704898;83;21324;-63
2021/09/23 04:11:56;;;;;;;9.08;6.80;;;;;;;10.66;82.20;100673.18;1726154;83;21332;-61
2021/09/23 04:14:34;;;;;;;9.08;6.28;;;;;;;10.70;82.08;100681.13;1724951;83;21276;-62
2021/09/23 04:17:08;;;;;;;12.20;7.10;;;;;;;10.70;81.87;100679.34;1724095;83;21578;-63
2021/09/23 04:19:44;;;;;;;11.18;7.15;;;;;;;10.69;81.91;100681.63;1724304;83;21915;-62
2021/09/23 04:22:22;;;;;;;7.62;6.53;;;;;;;10.73;82.02;100677.79;1697147;84;21516;-62
2021/09/23 04:24:56;;;;;;;11.78;7.15;;;;;;;10.76;81.72;100682.78;1697911;83;21356;-62
2021/09/23 04:27:34;;;;;;;12.60;7.78;;;;;;;10.77;81.62;100683.12;1724170;83;21240;-62
2021/09/23 04:30:12;;;;;;;13.18;7.37;;;;;;;10.78;81.50;100678.72;1724877;83;21340;-62
2021/09/23 04:32:45;;;;;;;9.45;7.33;;;;;;;10.78;81.41;100680.02;1727004;83;21170;-61
2021/09/23 04:35:21;;;;;;;10.05;7.42;;;;;;;10.78;81.26;100673.00;1725645;83;21759;-61
2021/09/23 04:37:57;;;;;;;14.58;7.55;;;;;;;10.80;81.11;100669.77;1693105;84;21156;-61
2021/09/23 04:40:31;;;;;;;9.15;7.08;;;;;;;10.79;81.08;100672.53;1701254;83;21208;-62
2021/09/23 04:43:09;;;;;;;11.28;7.30;;;;;;;10.83;81.05;100673.93;1693044;85;21196;-62
2021/09/23 04:45:49;;;;;;;8.63;6.58;;;;;;;10.87;81.03;100676.64;1732243;83;21351;-61
2021/09/23 04:48:22;;;;;;;7.75;5.72;;;;;;;10.88;80.84;100678.31;1739635;81;21328;-62
2021/09/23 04:50:58;;;;;;;10.40;6.80;;;;;;;10.91;80.73;100680.69;1763949;81;21254;-62
2021/09/23 04:53:34;;;;;;;9.05;7.47;;;;;;;10.91;80.59;100679.38;1754148;81;21325;-61
2021/09/23 04:56:09;;;;;;;9.63;7.03;;;;;;;10.94;80.50;100691.39;1678276;84;21196;-62
2021/09/23 04:58:43;;;;;;;14.43;7.60;;;;;;;10.93;80.33;100689.23;1675960;85;21895;-60
2021/09/23 05:01:19;;;;;;;13.48;7.70;;;;;;;10.92;80.27;100684.95;1719720;83;21884;-66
2021/09/23 05:03:53;;;;;;;10.88;7.20;;;;;;;10.93;80.35;100689.23;1729528;82;21319;-65
2021/09/23 05:06:30;;;;;;;11.63;7.78;;;;;;;10.97;80.33;100690.63;1729095;81;21164;-68
2021/09/23 05:09:05;;;;;;;12.90;7.08;;;;;;;10.99;80.31;100688.72;1722372;81;21237;-62
2021/09/23 05:11:45;;;;;;;8.45;7.15;;;;;;;10.98;80.23;100694.93;1723121;81;21169;-61
2021/09/23 05:14:20;;;;;;;12.63;8.00;;;;;;;11.01;80.40;100697.77;1722430;81;21354;-62
2021/09/23 05:16:57;;;;;;;13.28;7.75;;;;;;;11.06;80.41;100696.41;1718880;81;21193;-61
2021/09/23 05:19:31;;;;;;;10.23;7.28;;;;;;;11.11;80.28;100693.40;1721548;81;21217;-61
2021/09/23 05:22:08;;;;;;;12.10;7.28;;;;;;;11.13;80.10;100694.94;1721626;81;21188;-61
2021/09/23 05:24:47;;;;;;;9.65;7.12;;;;;;;11.15;79.95;100695.63;1714079;83;21205;-58
2021/09/23 05:27:20;;;;;;;13.90;7.45;;;;;;;11.18;79.64;100697.16;1714394;82;21773;-62
2021/09/23 05:29:55;;;;;;;12.85;7.37;;;;;;;11.19;79.49;100694.44;1718452;81;21231;-61
2021/09/23 05:32:29;;;;;;;9.03;6.70;;;;;;;11.20;79.25;100688.72;1719013;81;21213;-63
2021/09/23 05:35:09;;;;;;;10.00;7.28;;;;;;;11.24;79.30;100694.05;1687649;82;21332;-63
2021/09/23 05:37:44;;;;;;;10.05;7.03;;;;;;;11.28;79.28;100694.97;1688209;83;21231;-65
2021/09/23 05:40:18;;;;;;;9.40;7.45;;;;;;;11.32;79.01;100697.66;1721139;81;21334;-62
2021/09/23 05:42:51;;;;;;;12.07;7.83;;;;;;;11.39;78.87;100700.63;1718633;81;21332;-61
2021/09/23 05:45:27;;;;;;;11.57;7.80;;;;;;;11.45;78.72;100690.44;1719034;83;21357;-63
2021/09/23 05:48:00;;;;;;;11.55;8.43;;;;;;;11.50;78.45;100687.42;1685366;84;21219;-63
2021/09/23 05:50:34;;;;;;;13.03;8.18;;;;;;;11.49;78.51;100688.36;1689122;83;21230;-66
2021/09/23 05:53:10;;;;;;;13.80;8.00;;;;;;;11.53;78.31;100686.66;1721578;81;21307;-62
2021/09/23 05:55:46;;;;;;;10.23;7.47;;;;;;;11.57;78.05;100682.47;1721916;81;21181;-64
2021/09/23 05:58:19;;;;;;;14.87;8.20;;;;;;;11.60;77.83;100676.49;1722156;81;21209;-65
2021/09/23 06:01:19;;;;;;;16.00;7.42;;;;;;;11.65;77.79;100677.41;1723857;81;21307;-64
2021/09/23 06:03:57;;;;;;;14.75;7.70;;;;;;;11.69;77.73;100673.58;1725463;81;21264;-65
2021/09/23 06:06:33;;;;;;;10.05;6.85;;;;;;;11.81;77.82;100679.07;1725270;81;21174;-61
2021/09/23 06:09:09;;;;;;;10.88;6.33;;;;;;;11.91;77.80;100688.64;1719652;81;21196;-62
2021/09/23 06:11:46;;;;;;;8.88;6.55;;;;;;;12.00;77.58;100687.83;1722867;81;21189;-60
2021/09/23 06:14:22;;;;;;;10.38;7.33;;;;;;;12.04;77.24;100686.59;1717160;81;21229;-61
2021/09/23 06:17:04;;;;;;;9.33;7.70;;;;;;;12.06;76.83;100684.66;1717307;81;21385;-64
2021/09/23 06:19:39;;;;;;;10.50;7.83;;;;;;;12.05;76.42;100687.42;1720597;81;21296;-62
2021/09/23 06:22:16;;;;;;;14.23;9.30;;;;;;;12.05;76.47;100686.11;1720430;82;21371;-65
2021/09/23 06:24:51;;;;;;;12.35;8.85;;;;;;;12.04;76.36;100682.66;1715839;82;21198;-64
2021/09/23 06:27:25;;;;;;;9.70;7.03;;;;;;;12.05;76.21;100679.55;1720762;81;21238;-61
2021/09/23 06:30:00;;;;;;;15.08;8.38;;;;;;;12.07;76.23;100671.89;1719568;81;21367;-63
2021/09/23 06:32:35;;;;;;;11.78;8.08;;;;;;;12.08;75.99;100668.28;1718326;81;21803;-66
2021/09/23 06:35:13;;;;;;;12.88;8.40;;;;;;;12.12;75.65;100674.95;1718093;81;21305;-61
2021/09/23 06:37:53;;;;;;;14.45;9.45;;;;;;;12.15;75.22;100670.74;1716922;81;21737;-64
2021/09/23 06:40:29;;;;;;;13.85;8.23;;;;;;;12.21;74.96;100669.34;1722667;81;21190;-64
2021/09/23 06:43:03;;;;;;;14.83;7.87;;;;;;;12.30;74.54;100667.72;1722665;81;21810;-60
2021/09/23 06:45:41;;;;;;;18.23;8.18;;;;;;;12.41;74.38;100663.16;1722646;82;21220;-61
2021/09/23 06:48:16;;;;;;;32.25;18.82;;;;;;;12.54;74.04;100666.33;1717567;81;21319;-63
2021/09/23 06:50:51;;;;;;;20.70;11.10;;;;;;;12.62;73.33;100658.59;1718889;81;21213;-66
2021/09/23 06:53:28;;;;;;;15.00;10.05;;;;;;;12.67;73.17;100655.55;1718211;81;21295;-67
2021/09/23 06:56:02;;;;;;;14.77;9.37;;;;;;;12.71;73.12;100659.54;1714281;81;21256;-67
2021/09/23 06:58:37;;;;;;;10.10;8.53;;;;;;;12.73;73.05;100649.72;1720793;81;21276;-66
2021/09/23 07:01:48;;;;;;;10.58;7.87;;;;;;;12.79;72.46;100646.55;1725194;81;21692;-63
2021/09/23 07:04:38;;;;;;;11.08;8.45;;;;;;;12.85;72.48;100646.80;1714643;81;21590;-67
2021/09/23 07:07:31;;;;;;;11.22;7.37;;;;;;;12.92;72.42;100641.80;1719567;81;21330;-67
2021/09/23 07:10:08;;;;;;;12.50;8.15;;;;;;;13.01;72.36;100637.52;1722040;82;21319;-65
2021/09/23 07:12:43;;;;;;;17.02;8.70;;;;;;;13.10;72.25;100640.15;1718203;81;21186;-68
2021/09/23 07:15:20;;;;;;;12.60;8.25;;;;;;;13.15;71.47;100648.92;1716398;81;21312;-70
2021/09/23 07:17:52;;;;;;;;;;;;;;;13.16;71.16;100642.70;1720838;81;21460;-66
2021/09/23 07:20:26;;;;;;;11.73;8.28;;;;;;;13.20;70.61;100638.80;1723360;81;20322;-66
2021/09/23 07:23:02;;;;;;;9.65;7.37;;;;;;;13.23;70.19;100632.76;1722815;81;21922;-64
2021/09/23 07:25:35;;;;;;;11.68;8.08;;;;;;;13.31;70.02;100633.36;1715530;81;21261;-65
2021/09/23 07:28:15;;;;;;;9.30;7.62;;;;;;;13.39;69.57;100634.31;1715150;81;21190;-69
2021/09/23 07:30:51;;;;;;;13.78;10.23;;;;;;;13.44;69.04;100630.77;1719604;81;21296;-61
2021/09/23 07:33:25;;;;;;;13.53;8.40;;;;;;;13.40;69.12;100633.80;1694400;83;21379;-63
2021/09/23 07:36:21;;;;;;;26.90;9.55;;;;;;;13.48;69.23;100634.75;1690179;83;21778;-61
2021/09/23 07:38:55;;;;;;;12.03;7.87;;;;;;;13.60;69.25;100631.91;1711835;81;21911;-63
2021/09/23 07:41:37;;;;;;;11.90;8.70;;;;;;;13.73;69.27;100633.73;1730614;83;21292;-66
2021/09/23 07:44:14;;;;;;;10.95;8.83;;;;;;;13.86;68.46;100627.61;1730442;83;21306;-70
2021/09/23 07:46:48;;;;;;;11.97;7.42;;;;;;;13.99;67.88;100624.16;1730746;83;21170;-65
2021/09/23 07:53:33;;;;;;;121.35;16.52;;;;;;;14.15;66.49;100626.94;1731254;83;21177;-69
2021/09/23 07:56:06;;;;;;;;;;;;;;;14.22;66.61;100625.36;1695913;85;21282;-66
2021/09/23 07:58:44;;;;;;;11.03;7.75;;;;;;;14.30;66.85;100620.66;1729689;83;20275;-63
2021/09/23 08:01:17;;;;;;;10.75;7.33;;;;;;;14.34;66.79;100617.60;1729808;83;21205;-64
2021/09/23 08:03:55;;;;;;;10.25;7.60;;;;;;;14.41;66.06;100622.60;1731956;83;21295;-63
2021/09/23 08:06:28;;;;;;;11.00;7.28;;;;;;;14.41;65.38;100619.97;1732077;83;21361;-70
2021/09/23 08:09:02;;;;;;;15.83;7.20;;;;;;;14.38;64.61;100618.11;1731942;83;21288;-69
2021/09/23 08:11:38;;;;;;;12.75;7.05;;;;;;;14.31;64.36;100620.53;1730093;83;21367;-68
2021/09/23 08:18:29;;;;;;;17.60;8.38;;;;;;;14.16;64.25;100618.88;1729671;81;21157;-67
2021/09/23 08:21:18;;;;;;;23.92;13.18;;;;;;;14.07;64.72;100615.83;1727135;83;21637;-67
2021/09/23 08:23:53;;;;;;;12.05;6.33;;;;;;;14.04;65.23;100610.86;1733378;83;21296;-65
2021/09/23 08:26:29;;;;;;;12.15;6.20;;;;;;;14.04;65.24;100608.73;1732049;83;21272;-65
2021/09/23 08:29:03;;;;;;;7.05;5.72;;;;;;;14.02;65.25;100608.03;1729939;83;21240;-66
2021/09/23 08:31:40;;;;;;;8.83;5.45;;;;;;;13.99;65.35;100607.04;1732045;83;21284;-65
2021/09/23 08:34:13;;;;;;;11.70;6.03;;;;;;;13.96;64.93;100607.33;1731913;83;21283;-63
2021/09/23 08:36:46;;;;;;;7.65;4.22;;;;;;;13.94;64.53;100600.08;1731730;83;22155;-64
2021/09/23 08:39:19;;;;;;;7.65;4.90;;;;;;;13.89;63.58;100599.20;1731560;81;21331;-62
2021/09/23 08:41:53;;;;;;;6.22;4.50;;;;;;;13.90;63.10;100593.46;1735329;81;21290;-64
2021/09/23 08:44:29;;;;;;;11.75;4.95;;;;;;;13.85;62.76;100587.81;1707012;81;21350;-65
2021/09/23 08:47:02;;;;;;;12.90;5.22;;;;;;;13.87;63.00;100591.12;1688355;83;22276;-64
2021/09/23 08:49:38;;;;;;;7.15;5.25;;;;;;;13.87;63.29;100591.12;1662059;84;21196;-63
2021/09/23 08:52:12;;;;;;;7.42;4.92;;;;;;;13.92;63.22;100591.51;1701570;82;22225;-64
2021/09/23 08:54:46;;;;;;;5.87;4.80;;;;;;;13.93;62.92;100588.72;1713624;82;21348;-62
2021/09/23 08:57:20;;;;;;;9.83;5.28;;;;;;;13.96;63.08;100584.47;1711027;82;21308;-66
2021/09/23 08:59:53;;;;;;;7.90;4.78;;;;;;;14.00;62.88;100581.88;1705708;82;21713;-63
2021/09/23 09:02:32;;;;;;;5.42;4.35;;;;;;;14.01;62.88;100587.48;1710202;82;21270;-65
2021/09/23 09:05:08;;;;;;;5.20;3.90;;;;;;;14.00;62.04;100585.82;1661107;85;21331;-62
2021/09/23 09:07:50;;;;;;;6.75;3.85;;;;;;;13.99;61.31;100580.72;1695731;83;21399;-67
2021/09/23 09:10:38;;;;;;;6.70;5.10;;;;;;;14.06;60.60;100585.23;1704269;81;21195;-66
2021/09/23 09:13:14;;;;;;;4.00;3.55;;;;;;;14.18;59.83;100577.94;1715656;81;21217;-64
2021/09/23 09:15:50;;;;;;;7.85;4.95;;;;;;;14.26;59.31;100581.13;1720755;81;21342;-64
2021/09/23 09:18:26;;;;;;;6.58;4.50;;;;;;;14.40;59.27;100575.35;1672556;84;21282;-68
2021/09/23 09:21:11;;;;;;;4.65;4.12;;;;;;;14.55;58.90;100577.27;1692735;84;21489;-70
2021/09/23 09:23:58;;;;;;;8.63;4.12;;;;;;;14.72;58.39;100582.16;1675845;84;21421;-69
2021/09/23 09:26:39;;;;;;;8.45;5.83;;;;;;;14.85;57.57;100569.41;1664063;84;21371;-68
2021/09/23 09:29:15;;;;;;;5.00;4.50;;;;;;;15.01;56.87;100567.34;1723092;81;21370;-67
2021/09/23 09:31:51;;;;;;;13.10;6.35;;;;;;;15.12;56.49;100563.11;1726578;81;21355;-68
2021/09/23 09:34:26;;;;;;;14.80;5.30;;;;;;;15.28;55.99;100565.84;1723220;83;21239;-68
2021/09/23 09:37:01;;;;;;;13.03;5.58;;;;;;;15.46;55.60;100559.50;1727097;81;21355;-66
2021/09/23 09:39:38;;;;;;;9.53;5.17;;;;;;;15.70;54.91;100557.91;1694608;83;21232;-68
2021/09/23 09:42:12;;;;;;;7.17;5.67;;;;;;;15.91;54.22;100553.00;1726072;83;21473;-66
2021/09/23 09:44:56;;;;;;;24.65;13.45;;;;;;;16.10;53.06;100558.80;1656479;83;21894;-65
2021/09/23 09:47:35;;;;;;;12.70;8.65;;;;;;;16.25;52.54;100555.02;1719047;83;21340;-64
2021/09/23 09:50:16;;;;;;;14.53;6.15;;;;;;;16.45;51.83;100551.06;1726234;81;21330;-64
2021/09/23 09:52:56;;;;;;;6.15;4.72;;;;;;;16.57;51.88;100547.61;1716447;81;21854;-65
2021/09/23 09:55:30;;;;;;;5.90;4.90;;;;;;;16.73;51.71;100541.80;1723222;81;21361;-61
2021/09/23 09:58:04;;;;;;;11.93;5.28;;;;;;;16.86;51.13;100534.63;1662108;84;21803;-68
2021/09/23 10:00:39;;;;;;;;;;;;;;;16.97;50.29;100535.61;1731170;81;21367;-68
2021/09/23 10:03:16;;;;;;;7.92;4.97;;;;;;;17.07;50.01;100528.31;1725702;81;20310;-64
2021/09/23 10:05:53;;;;;;;5.67;4.60;;;;;;;17.13;49.49;100528.94;1728331;81;21236;-71
2021/09/23 10:08:29;;;;;;;8.45;4.97;;;;;;;17.17;48.93;100530.75;1722197;81;21232;-69
2021/09/23 10:11:03;;;;;;;19.65;9.25;;;;;;;17.13;48.24;100527.61;1728547;81;21233;-71
2021/09/23 10:13:39;;;;;;;19.52;6.90;;;;;;;17.00;48.65;100527.84;1726732;81;21192;-69
2021/09/23 10:16:15;;;;;;;11.90;5.60;;;;;;;16.91;48.47;100530.19;1657272;84;21250;-64
2021/09/23 10:18:50;;;;;;;7.87;5.05;;;;;;;16.82;48.96;100523.59;1717585;82;21210;-62
2021/09/23 10:21:27;;;;;;;9.10;5.90;;;;;;;16.82;49.14;100527.55;1711364;82;21236;-64
2021/09/23 10:24:10;;;;;;;9.55;5.33;;;;;;;16.78;48.98;100525.42;1711745;82;21282;-64
2021/09/23 10:26:47;;;;;;;12.73;5.58;;;;;;;16.69;48.89;100522.48;1708707;82;21190;-69
2021/09/23 10:29:25;;;;;;;8.40;4.97;;;;;;;16.60;49.38;100522.97;1702753;82;21736;-69
2021/09/23 10:32:02;;;;;;;46.85;9.73;;;;;;;16.51;49.79;100525.30;1710639;82;21245;-68
2021/09/23 10:34:36;;;;;;;10.38;5.05;;;;;;;16.49;49.68;100526.43;1687175;83;21316;-68
2021/09/23 10:37:11;;;;;;;9.40;4.87;;;;;;;16.55;49.56;100528.45;1691907;83;21221;-67
2021/09/23 10:39:47;;;;;;;11.30;5.35;;;;;;;16.66;49.47;100526.28;1707548;82;21335;-70
2021/09/23 10:42:22;;;;;;;9.45;5.62;;;;;;;16.84;49.39;100520.27;1702162;82;21229;-69
2021/09/23 10:44:58;;;;;;;7.42;5.37;;;;;;;17.07;49.05;100519.05;1682755;83;21145;-67
2021/09/23 10:47:36;;;;;;;6.15;4.67;;;;;;;17.12;48.42;100507.95;1696095;81;21336;-65
2021/09/23 10:50:12;;;;;;;8.35;5.10;;;;;;;17.03;49.16;100508.47;1716189;83;21142;-70
2021/09/23 10:52:46;;;;;;;6.53;4.67;;;;;;;16.98;49.10;100502.86;1720826;81;21375;-65
2021/09/23 10:55:22;;;;;;;12.98;5.20;;;;;;;17.03;49.28;100499.73;1702226;82;22504;-66
2021/09/23 10:57:59;;;;;;;20.52;9.18;;;;;;;17.13;48.91;100504.30;1727631;81;21305;-67
2021/09/23 11:00:34;;;;;;;46.75;23.65;;;;;;;17.10;48.98;100502.02;1711876;82;21201;-68
2021/09/23 11:03:11;;;;;;;23.57;12.93;;;;;;;17.13;48.80;100506.45;1717462;81;21563;-63
2021/09/23 11:05:46;;;;;;;22.93;13.53;;;;;;;17.16;48.67;100502.14;1713666;81;21303;-66
2021/09/23 11:08:20;;;;;;;16.80;8.95;;;;;;;17.18;49.07;100503.28;1725464;81;21315;-71
2021/09/23 11:10:53;;;;;;;8.13;5.97;;;;;;;17.24;49.24;100507.38;1701019;81;21931;-65
2021/09/23 11:13:26;;;;;;;11.93;5.95;;;;;;;17.25;48.35;100502.92;1698761;83;21910;-68
2021/09/23 11:16:07;;;;;;;9.13;5.47;;;;;;;17.20;48.16;100502.61;1698739;81;21847;-70
2021/09/23 11:18:42;;;;;;;9.75;5.75;;;;;;;17.05;47.96;100497.21;1716157;81;21209;-67
2021/09/23 11:21:18;;;;;;;62.08;10.85;;;;;;;16.93;48.77;100502.58;1662926;82;21323;-66
2021/09/23 11:23:54;;;;;;;10.15;6.58;;;;;;;16.88;49.21;100498.78;1688879;83;21206;-66
2021/09/23 11:26:29;;;;;;;13.98;6.95;;;;;;;16.85;48.85;100503.91;1709124;82;21340;-70
2021/09/23 11:29:04;;;;;;;9.85;5.00;;;;;;;16.77;49.27;100501.28;1689550;82;21197;-70
2021/09/23 11:31:55;;;;;;;9.13;6.15;;;;;;;16.68;48.84;100506.27;1708149;82;21369;-66
2021/09/23 11:34:39;;;;;;;10.53;6.03;;;;;;;16.57;48.96;100503.51;1704972;82;21176;-70
2021/09/23 11:37:13;;;;;;;7.45;5.17;;;;;;;16.41;49.43;100503.97;1707046;82;21944;-68
2021/09/23 11:39:51;;;;;;;14.10;5.35;;;;;;;16.25;49.67;100503.50;1709810;82;21280;-69
2021/09/23 11:42:28;;;;;;;;;;;;;;;16.16;50.00;100495.27;1712515;82;22011;-68
2021/09/23 11:45:25;;;;;;;8.23;5.45;;;;;;;16.08;50.34;100498.73;1693353;83;20303;-70
2021/09/23 11:48:00;;;;;;;9.53;5.55;;;;;;;15.98;50.34;100505.98;1730401;81;21340;-61
2021/09/23 11:50:47;;;;;;;14.75;6.85;;;;;;;15.89;50.87;100504.81;1735176;81;21179;-66
2021/09/23 11:53:34;;;;;;;7.65;6.10;;;;;;;15.81;52.61;100514.07;1726000;81;21177;-67
2021/09/23 11:56:16;;;;;;;9.18;6.40;;;;;;;15.69;53.46;100512.73;1725548;81;21300;-68
2021/09/23 11:58:49;;;;;;;9.08;6.80;;;;;;;15.59;54.14;100514.69;1716831;81;21369;-69
2021/09/23 12:01:27;;;;;;;11.78;6.65;;;;;;;15.49;55.49;100520.94;1719022;81;21296;-69
2021/09/23 12:04:02;;;;;;;13.80;7.10;;;;;;;15.40;56.13;100512.61;1718303;81;21351;-69
2021/09/23 12:06:35;;;;;;;10.43;6.55;;;;;;;15.35;55.87;100514.09;1696624;83;21216;-65
2021/09/23 12:09:15;;;;;;;10.13;6.05;;;;;;;15.33;55.80;100505.52;1719438;81;21819;-60
2021/09/23 12:11:51;;;;;;;13.30;11.18;;;;;;;15.33;55.16;100510.28;1720108;82;21246;-63
2021/09/23 12:14:27;;;;;;;16.52;9.10;;;;;;;15.35;55.67;100510.14;1719586;81;21391;-63
2021/09/23 12:17:07;;;;;;;12.75;7.75;;;;;;;15.37;56.62;100506.36;1706514;82;22167;-65